createdAt,value
2023-05-10T00:01:21.839Z,2.03
2023-05-10T00:04:28.184Z,2.37
2023-05-10T00:07:30.541Z,2.08
2023-05-10T00:10:32.629Z,2.30
2023-05-10T00:13:34.711Z,2.10
2023-05-10T00:16:36.375Z,2.38
2023-05-10T00:19:38.719Z,2.30
2023-05-10T00:22:40.438Z,2.30
2023-05-10T00:25:43.672Z,2.30
2023-05-10T00:28:45.273Z,2.10
2023-05-10T00:31:46.889Z,2.40
2023-05-10T00:34:48.975Z,2.13
2023-05-10T00:37:51.068Z,2.15
2023-05-10T00:40:53.143Z,2.17
2023-05-10T00:44:03.106Z,1.98
2023-05-10T00:47:05.640Z,1.87
2023-05-10T00:50:08.027Z,1.83
2023-05-10T00:53:10.199Z,1.92
2023-05-10T00:56:13.285Z,2.20
2023-05-10T00:59:17.801Z,2.28
2023-05-10T01:02:19.507Z,1.80
2023-05-10T01:05:21.276Z,1.80
2023-05-10T01:08:23.327Z,1.80
2023-05-10T01:11:26.381Z,1.77
2023-05-10T01:14:29.352Z,1.80
2023-05-10T01:17:32.585Z,1.50
2023-05-10T01:20:44.800Z,1.60
2023-05-10T01:24:20.540Z,1.67
2023-05-10T01:27:31.515Z,1.50
2023-05-10T01:30:45.791Z,1.60
2023-05-10T01:33:59.999Z,1.40
2023-05-10T01:37:19.463Z,1.40
2023-05-10T01:40:31.330Z,1.40
2023-05-10T01:43:58.070Z,1.30
2023-05-10T01:47:07.667Z,1.40
2023-05-10T01:50:18.649Z,1.40
2023-05-10T01:53:22.851Z,1.30
2023-05-10T01:56:28.951Z,1.40
2023-05-10T01:59:37.357Z,1.40
2023-05-10T02:02:43.266Z,1.20
2023-05-10T02:05:48.230Z,1.30
2023-05-10T02:08:52.597Z,1.30
2023-05-10T02:11:56.952Z,1.20
2023-05-10T02:15:03.095Z,1.40
2023-05-10T02:18:07.042Z,1.40
2023-05-10T02:21:09.850Z,1.30
2023-05-10T02:24:16.662Z,1.37
2023-05-10T02:27:20.157Z,1.20
2023-05-10T02:30:24.074Z,1.20
2023-05-10T02:33:27.466Z,1.10
2023-05-10T02:36:30.772Z,1.13
2023-05-10T02:39:33.754Z,1.20
2023-05-10T02:42:38.771Z,1.00
2023-05-10T02:45:42.537Z,1.15
2023-05-10T02:48:45.324Z,1.00
2023-05-10T02:51:52.478Z,0.98
2023-05-10T02:54:57.646Z,0.90
2023-05-10T02:58:02.154Z,1.08
2023-05-10T03:01:04.081Z,0.80
2023-05-10T03:04:07.278Z,0.90
2023-05-10T03:07:09.583Z,1.00
2023-05-10T03:10:12.677Z,0.90
2023-05-10T03:13:30.568Z,0.80
2023-05-10T03:16:59.867Z,0.90
2023-05-10T03:20:08.883Z,0.90
2023-05-10T03:23:17.374Z,1.00
2023-05-10T03:26:26.436Z,0.70
2023-05-10T03:29:34.877Z,0.73
2023-05-10T03:32:38.579Z,0.80
2023-05-10T03:35:41.324Z,0.80
2023-05-10T03:38:43.603Z,0.70
2023-05-10T03:41:46.087Z,0.70
2023-05-10T03:44:50.177Z,0.60
2023-05-10T03:47:52.315Z,0.70
2023-05-10T03:50:54.734Z,0.60
2023-05-10T03:53:56.685Z,0.70
2023-05-10T03:56:58.928Z,0.60
2023-05-10T04:00:02.608Z,0.50
2023-05-10T04:03:15.996Z,0.60
2023-05-10T04:06:18.436Z,0.50
2023-05-10T04:09:20.996Z,0.63
2023-05-10T04:12:23.257Z,0.50
2023-05-10T04:15:25.358Z,0.70
2023-05-10T04:18:27.073Z,0.60
2023-05-10T04:21:28.700Z,0.60
2023-05-10T04:24:30.774Z,0.55
2023-05-10T04:27:32.913Z,0.70
2023-05-10T04:30:34.981Z,0.50
2023-05-10T04:33:37.781Z,0.60
2023-05-10T04:36:39.828Z,0.60
2023-05-10T04:39:42.429Z,0.60
2023-05-10T04:42:44.790Z,0.60
2023-05-10T04:45:46.593Z,0.70
2023-05-10T04:48:48.309Z,0.65
2023-05-10T04:51:49.968Z,0.70
2023-05-10T04:54:52.372Z,0.60
2023-05-10T04:57:57.760Z,0.80
2023-05-10T05:01:08.056Z,0.60
2023-05-10T05:04:09.722Z,0.68
2023-05-10T05:07:11.755Z,0.60
2023-05-10T05:10:14.096Z,0.70
2023-05-10T05:13:16.492Z,0.60
2023-05-10T05:16:18.243Z,0.90
2023-05-10T05:19:19.939Z,0.63
2023-05-10T05:22:28.269Z,0.70
2023-05-10T05:25:30.373Z,0.68
2023-05-10T05:28:34.966Z,0.70
2023-05-10T05:31:37.215Z,0.52
2023-05-10T05:34:39.332Z,0.70
2023-05-10T05:37:41.620Z,0.88
2023-05-10T05:40:43.323Z,0.80
2023-05-10T05:43:44.973Z,0.80
2023-05-10T05:46:46.584Z,0.80
2023-05-10T05:49:48.211Z,0.88
2023-05-10T05:52:50.316Z,0.90
2023-05-10T05:55:56.737Z,0.80
2023-05-10T05:58:58.391Z,0.90
2023-05-10T06:02:00.188Z,1.00
2023-05-10T06:05:02.031Z,1.20
2023-05-10T06:08:03.735Z,0.90
2023-05-10T06:11:06.478Z,1.10
2023-05-10T06:14:09.013Z,1.30
2023-05-10T06:17:11.174Z,1.10
2023-05-10T06:20:13.387Z,1.23
2023-05-10T06:23:15.781Z,1.30
2023-05-10T06:26:17.878Z,1.30
2023-05-10T06:29:19.517Z,1.30
2023-05-10T06:32:21.211Z,1.20
2023-05-10T06:35:22.886Z,1.13
2023-05-10T06:38:24.838Z,1.15
2023-05-10T06:41:26.382Z,1.13
2023-05-10T06:44:28.236Z,1.27
2023-05-10T06:47:30.345Z,1.10
2023-05-10T06:50:32.038Z,1.10
2023-05-10T06:53:33.788Z,1.20
2023-05-10T06:56:35.408Z,1.40
2023-05-10T06:59:37.666Z,1.35
2023-05-10T07:02:39.387Z,1.20
2023-05-10T07:05:41.548Z,0.90
2023-05-10T07:08:43.255Z,1.10
2023-05-10T07:11:44.904Z,1.00
2023-05-10T07:14:46.838Z,1.10
2023-05-10T07:17:48.499Z,0.82
2023-05-10T07:20:50.900Z,0.88
2023-05-10T07:23:52.605Z,1.10
2023-05-10T07:26:54.651Z,0.90
2023-05-10T07:29:57.538Z,1.00
2023-05-10T07:33:00.230Z,1.10
2023-05-10T07:36:02.370Z,1.00
2023-05-10T07:39:04.676Z,0.90
2023-05-10T07:42:06.919Z,1.02
2023-05-10T07:45:09.595Z,1.00
2023-05-10T07:48:12.167Z,1.10
2023-05-10T07:51:13.882Z,0.90
2023-05-10T07:54:15.577Z,1.02
2023-05-10T07:57:18.595Z,0.90
2023-05-10T08:00:21.502Z,0.90
2023-05-10T08:03:23.276Z,1.00
2023-05-10T08:06:29.091Z,1.10
2023-05-10T08:09:30.750Z,1.00
2023-05-10T08:12:32.755Z,1.08
2023-05-10T08:15:34.390Z,0.95
2023-05-10T08:18:36.138Z,1.00
2023-05-10T08:21:38.326Z,1.00
2023-05-10T08:24:40.077Z,1.10
2023-05-10T08:27:42.147Z,0.88
2023-05-10T08:30:44.338Z,0.90
2023-05-10T08:33:46.010Z,1.00
2023-05-10T08:36:48.165Z,1.00
2023-05-10T08:39:50.404Z,1.10
2023-05-10T08:42:59.933Z,1.00
2023-05-10T08:46:04.119Z,0.97
2023-05-10T08:49:11.258Z,1.02
2023-05-10T08:52:16.003Z,1.20
2023-05-10T08:55:18.798Z,1.15
2023-05-10T08:58:21.829Z,1.00
2023-05-10T09:01:26.493Z,1.08
2023-05-10T09:04:30.451Z,1.10
2023-05-10T09:07:34.806Z,1.23
2023-05-10T09:10:39.479Z,1.10
2023-05-10T09:13:43.324Z,1.20
2023-05-10T09:16:45.264Z,1.00
2023-05-10T09:19:47.446Z,1.10
2023-05-10T09:22:49.216Z,1.20
2023-05-10T09:26:05.538Z,1.10
2023-05-10T09:29:10.508Z,1.25
2023-05-10T09:32:13.804Z,1.30
2023-05-10T09:35:18.422Z,1.40
2023-05-10T09:38:20.758Z,1.13
2023-05-10T09:41:24.372Z,1.35
2023-05-10T09:44:27.256Z,1.40
2023-05-10T09:47:28.918Z,1.40
2023-05-10T09:50:31.395Z,1.20
2023-05-10T09:53:33.472Z,1.30
2023-05-10T09:56:36.924Z,1.20
2023-05-10T09:59:44.259Z,0.98
2023-05-10T10:02:48.834Z,1.25
2023-05-10T10:05:50.712Z,1.10
2023-05-10T10:08:56.744Z,1.20
2023-05-10T10:12:01.085Z,1.45
2023-05-10T10:15:02.989Z,1.70
2023-05-10T10:18:06.720Z,1.75
2023-05-10T10:21:11.630Z,2.20
2023-05-10T10:24:13.276Z,1.80
2023-05-10T10:27:27.766Z,1.20
2023-05-10T10:30:52.230Z,0.80
2023-05-10T10:34:02.506Z,0.90
2023-05-10T10:37:07.942Z,1.20
2023-05-10T10:40:33.568Z,1.13
2023-05-10T10:43:36.989Z,1.30
2023-05-10T10:47:02.211Z,1.70
2023-05-10T10:50:07.192Z,1.40
2023-05-10T10:53:13.160Z,1.70
2023-05-10T10:56:16.287Z,1.70
2023-05-10T10:59:28.848Z,2.17
2023-05-10T11:02:40.185Z,1.50
2023-05-10T11:05:44.313Z,1.35
2023-05-10T11:08:46.112Z,1.38
2023-05-10T11:11:59.859Z,1.50
2023-05-10T11:15:01.981Z,1.27
2023-05-10T11:18:20.311Z,1.27
2023-05-10T11:21:22.078Z,1.13
2023-05-10T11:24:29.027Z,1.15
2023-05-10T11:27:31.114Z,1.30
2023-05-10T11:30:33.421Z,1.30
2023-05-10T11:33:49.705Z,1.40
2023-05-10T11:36:54.858Z,1.45
2023-05-10T11:39:57.002Z,1.40
2023-05-10T11:42:58.641Z,1.60
2023-05-10T11:46:01.203Z,1.60
2023-05-10T11:49:05.868Z,1.70
2023-05-10T11:52:08.819Z,1.50
2023-05-10T11:55:11.463Z,1.30
2023-05-10T11:58:13.235Z,1.20
2023-05-10T12:01:15.682Z,1.00
2023-05-10T12:04:17.798Z,1.10
2023-05-10T12:07:19.673Z,1.13
2023-05-10T12:10:27.434Z,1.00
2023-05-10T12:13:29.881Z,1.10
2023-05-10T12:16:31.850Z,1.20
2023-05-10T12:19:41.027Z,1.13
2023-05-10T12:22:46.482Z,1.30
2023-05-10T12:25:48.439Z,1.20
2023-05-10T12:28:50.087Z,1.23
2023-05-10T12:31:52.628Z,1.10
2023-05-10T12:34:54.394Z,0.93
2023-05-10T12:37:56.404Z,1.10
2023-05-10T12:41:00.236Z,1.20
2023-05-10T12:44:02.543Z,1.10
2023-05-10T12:47:04.666Z,1.38
2023-05-10T12:50:06.824Z,1.10
2023-05-10T12:53:09.482Z,1.40
2023-05-10T12:56:12.398Z,1.10
2023-05-10T12:59:14.536Z,1.30
2023-05-10T13:02:18.796Z,1.20
2023-05-10T13:05:20.979Z,1.20
2023-05-10T13:08:23.195Z,1.10
2023-05-10T13:11:25.124Z,1.00
2023-05-10T13:14:27.257Z,1.20
2023-05-10T13:17:30.636Z,1.50
2023-05-10T13:20:33.213Z,1.30
2023-05-10T13:23:36.030Z,1.35
2023-05-10T13:26:38.213Z,1.20
2023-05-10T13:29:39.755Z,1.38
2023-05-10T13:32:42.508Z,1.50
2023-05-10T13:35:44.837Z,1.25
2023-05-10T13:38:47.207Z,1.35
2023-05-10T13:41:49.460Z,1.35
2023-05-10T13:44:51.564Z,1.60
2023-05-10T13:47:53.233Z,1.50
2023-05-10T13:50:55.917Z,1.45
2023-05-10T13:53:57.525Z,1.50
2023-05-10T13:57:00.618Z,1.50
2023-05-10T14:00:03.250Z,1.60
2023-05-10T14:03:12.226Z,1.73
2023-05-10T14:06:14.721Z,1.50
2023-05-10T14:09:16.856Z,2.00
2023-05-10T14:12:18.461Z,1.50
2023-05-10T14:15:21.081Z,1.60
2023-05-10T14:18:23.525Z,1.00
2023-05-10T14:21:25.280Z,1.30
2023-05-10T14:24:27.354Z,0.93
2023-05-10T14:27:28.884Z,1.20
2023-05-10T14:30:31.551Z,1.05
2023-05-10T14:33:33.741Z,1.20
2023-05-10T14:36:35.354Z,1.00
2023-05-10T14:39:37.367Z,1.20
2023-05-10T14:42:38.959Z,1.05
2023-05-10T14:45:40.958Z,0.80
2023-05-10T14:48:42.634Z,1.10
2023-05-10T14:51:46.035Z,1.00
2023-05-10T14:54:48.639Z,1.30
2023-05-10T14:57:51.651Z,1.50
2023-05-10T15:00:54.181Z,1.35
2023-05-10T15:03:56.944Z,1.55
2023-05-10T15:07:00.630Z,1.50
2023-05-10T15:10:03.614Z,1.50
2023-05-10T15:13:06.310Z,1.90
2023-05-10T15:16:08.475Z,1.60
2023-05-10T15:19:11.327Z,2.03
2023-05-10T15:22:12.969Z,2.10
2023-05-10T15:25:15.994Z,2.30
2023-05-10T15:28:17.766Z,1.70
2023-05-10T15:31:19.877Z,2.17
2023-05-10T15:34:22.610Z,1.25
2023-05-10T15:37:25.415Z,1.40
2023-05-10T15:40:27.964Z,1.38
2023-05-10T15:43:29.658Z,1.20
2023-05-10T15:46:31.641Z,1.23
2023-05-10T15:49:33.962Z,2.00
2023-05-10T15:52:36.170Z,1.90
2023-05-10T15:55:37.776Z,3.63
2023-05-10T15:58:41.033Z,3.95
2023-05-10T16:01:43.266Z,1.38
2023-05-10T16:04:45.110Z,1.60
2023-05-10T16:07:47.614Z,1.30
2023-05-10T16:10:51.214Z,2.10
2023-05-10T16:13:53.744Z,1.70
2023-05-10T16:16:56.383Z,1.88
2023-05-10T16:19:58.236Z,1.80
2023-05-10T16:23:06.662Z,2.13
2023-05-10T16:26:09.345Z,2.20
2023-05-10T16:29:11.177Z,3.60
2023-05-10T16:32:12.834Z,2.83
2023-05-10T16:35:15.770Z,2.30
2023-05-10T16:38:17.960Z,4.27
2023-05-10T16:41:20.101Z,3.47
2023-05-10T16:44:25.686Z,3.00
2023-05-10T16:47:28.173Z,2.30
2023-05-10T16:50:30.444Z,2.15
2023-05-10T16:53:32.571Z,2.00
2023-05-10T16:56:34.149Z,2.10
2023-05-10T16:59:36.200Z,1.97
2023-05-10T17:02:39.416Z,1.60
2023-05-10T17:05:41.344Z,1.80
2023-05-10T17:08:44.486Z,1.80
2023-05-10T17:11:46.705Z,1.75
2023-05-10T17:14:48.396Z,2.35
2023-05-10T17:17:50.772Z,2.38
2023-05-10T17:20:52.514Z,2.20
2023-05-10T17:23:54.621Z,2.20
2023-05-10T17:26:57.400Z,1.90
2023-05-10T17:29:59.520Z,2.20
2023-05-10T17:33:02.159Z,2.27
2023-05-10T17:36:04.493Z,2.50
2023-05-10T17:39:06.371Z,2.88
2023-05-10T17:42:08.569Z,3.40
2023-05-10T17:45:10.854Z,2.75
2023-05-10T17:48:13.478Z,2.10
2023-05-10T17:51:15.677Z,2.35
2023-05-10T17:54:17.946Z,2.70
2023-05-10T17:57:20.792Z,2.60
2023-05-10T18:00:22.427Z,3.08
2023-05-10T18:03:24.681Z,2.30
2023-05-10T18:06:26.465Z,2.50
2023-05-10T18:09:29.503Z,2.10
2023-05-10T18:12:31.866Z,2.08
2023-05-10T18:15:34.086Z,2.03
2023-05-10T18:18:36.535Z,2.10
2023-05-10T18:21:39.096Z,2.20
2023-05-10T18:24:40.755Z,2.35
2023-05-10T18:27:43.464Z,2.00
2023-05-10T18:30:45.490Z,2.20
2023-05-10T18:33:47.126Z,2.55
2023-05-10T18:36:48.772Z,2.10
2023-05-10T18:39:50.795Z,2.60
2023-05-10T18:42:52.908Z,3.22
2023-05-10T18:45:55.015Z,3.58
2023-05-10T18:48:56.643Z,5.00
2023-05-10T18:52:01.152Z,5.82
2023-05-10T18:55:03.800Z,4.70
2023-05-10T18:58:05.940Z,4.40
2023-05-10T19:01:08.028Z,4.50
2023-05-10T19:04:10.206Z,3.67
2023-05-10T19:07:12.419Z,3.20
2023-05-10T19:10:14.587Z,3.30
2023-05-10T19:13:17.242Z,2.95
2023-05-10T19:16:20.329Z,2.60
2023-05-10T19:19:24.245Z,2.83
2023-05-10T19:22:44.993Z,2.60
2023-05-10T19:25:51.024Z,2.55
2023-05-10T19:28:53.710Z,2.30
2023-05-10T19:31:55.759Z,2.57
2023-05-10T19:34:58.150Z,2.30
2023-05-10T19:38:00.617Z,2.17
2023-05-10T19:41:02.338Z,2.40
2023-05-10T19:44:35.276Z,2.38
2023-05-10T19:47:37.604Z,3.03
2023-05-10T19:50:39.729Z,2.42
2023-05-10T19:53:44.730Z,2.50
2023-05-10T19:56:46.419Z,2.45
2023-05-10T19:59:48.602Z,1.98
2023-05-10T20:02:51.728Z,2.00
2023-05-10T20:05:53.964Z,2.05
2023-05-10T20:08:55.874Z,2.30
2023-05-10T20:11:58.312Z,2.20
2023-05-10T20:15:00.410Z,2.10
2023-05-10T20:18:04.108Z,2.20
2023-05-10T20:21:06.990Z,2.33
2023-05-10T20:24:09.788Z,2.25
2023-05-10T20:27:11.691Z,2.20
2023-05-10T20:30:13.323Z,2.42
2023-05-10T20:33:15.790Z,2.13
2023-05-10T20:36:17.926Z,2.28
2023-05-10T20:39:20.002Z,2.30
2023-05-10T20:42:22.685Z,2.27
2023-05-10T20:45:24.901Z,2.20
2023-05-10T20:48:26.502Z,2.10
2023-05-10T20:51:30.379Z,2.40
2023-05-10T20:54:32.412Z,2.38
2023-05-10T20:57:33.999Z,2.50
2023-05-10T21:00:35.598Z,2.40
2023-05-10T21:03:38.183Z,2.30
2023-05-10T21:06:39.759Z,2.60
2023-05-10T21:09:41.835Z,2.50
2023-05-10T21:12:43.430Z,2.70
2023-05-10T21:15:45.604Z,2.60
2023-05-10T21:18:47.780Z,2.50
2023-05-10T21:21:49.482Z,2.70
2023-05-10T21:24:51.567Z,3.10
2023-05-10T21:27:53.219Z,2.65
2023-05-10T21:30:55.899Z,2.63
2023-05-10T21:33:58.330Z,2.40
2023-05-10T21:37:00.061Z,2.47
2023-05-10T21:40:01.709Z,2.85
2023-05-10T21:43:04.770Z,2.63
2023-05-10T21:46:07.417Z,2.60
2023-05-10T21:49:09.535Z,2.50
2023-05-10T21:52:11.759Z,2.60
2023-05-10T21:55:13.990Z,3.08
2023-05-10T21:58:16.485Z,3.10
2023-05-10T22:01:18.950Z,2.70
2023-05-10T22:04:21.305Z,2.67
2023-05-10T22:07:22.929Z,2.63
2023-05-10T22:10:25.437Z,2.63
2023-05-10T22:13:27.095Z,2.67
2023-05-10T22:16:29.417Z,2.47
2023-05-10T22:19:31.448Z,2.95
2023-05-10T22:22:34.597Z,2.85
2023-05-10T22:25:36.194Z,2.80
2023-05-10T22:28:39.114Z,2.80
2023-05-10T22:31:41.334Z,2.75
2023-05-10T22:34:43.550Z,2.53
2023-05-10T22:37:46.375Z,2.90
2023-05-10T22:40:48.404Z,2.97
2023-05-10T22:43:50.467Z,2.75
2023-05-10T22:46:52.685Z,3.05
2023-05-10T22:49:56.106Z,2.50
2023-05-10T22:52:58.228Z,2.80
2023-05-10T22:56:00.626Z,2.80
2023-05-10T22:59:02.701Z,2.50
2023-05-10T23:02:04.969Z,2.60
2023-05-10T23:05:07.692Z,2.47
2023-05-10T23:08:09.585Z,2.40
2023-05-10T23:11:11.729Z,2.30
2023-05-10T23:14:14.053Z,2.50
2023-05-10T23:17:16.383Z,2.47
2023-05-10T23:20:18.226Z,2.50
2023-05-10T23:23:20.612Z,2.25
2023-05-10T23:26:22.791Z,2.30
2023-05-10T23:29:26.298Z,2.08
2023-05-10T23:32:28.016Z,2.03
2023-05-10T23:35:30.679Z,2.20
2023-05-10T23:38:32.253Z,2.20
2023-05-10T23:41:34.800Z,2.00
2023-05-10T23:44:36.850Z,2.30
2023-05-10T23:47:38.433Z,2.10
2023-05-10T23:50:44.985Z,2.10
2023-05-10T23:53:47.048Z,2.00
2023-05-10T23:56:51.320Z,2.00
2023-05-10T23:59:53.367Z,2.00
